Time;durP1;ratioP1;P1;durP2;ratioP2;P2;SDS_P1;SDS_P2;PMS_P1;PMS_P2;Temp;Humidity;BMP_temperature;BMP_pressure;BME280_temperature;BME280_humidity;BME280_pressure;Samples;Min_cycle;Max_cycle;Signal;HPM_P1;HPM_P2
2021/01/25 00:06:57;;;;;;;48.07;21.40;;;;;;;-0.69;83.23;96733.06;489599;1148;104556;-42
2021/01/25 00:17:02;;;;;;;45.33;21.37;;;;;;;-0.68;83.42;96733.86;489828;1149;104562;-42
2021/01/25 00:37:27;;;;;;;46.80;19.97;;;;;;;-0.85;83.37;96762.04;489722;1150;104902;-41
2021/01/25 00:47:32;;;;;;;42.75;20.10;;;;;;;-0.75;83.30;96757.22;489698;1150;104540;-40
2021/01/25 00:57:38;;;;;;;34.93;15.90;;;;;;;-0.78;83.41;96746.45;489755;1150;104959;-41
2021/01/25 01:07:43;;;;;;;32.00;14.43;;;;;;;-0.89;82.96;96747.09;489668;1149;104940;-42
2021/01/25 01:17:47;;;;;;;29.53;15.90;;;;;;;-0.85;83.25;96736.09;489638;1149;104975;-42
2021/01/25 01:27:52;;;;;;;31.35;14.65;;;;;;;-0.86;82.81;96742.28;489677;1150;105103;-41
2021/01/25 01:37:57;;;;;;;43.60;19.47;;;;;;;-0.74;82.90;96725.07;489818;1149;104574;-40
2021/01/25 01:48:02;;;;;;;31.33;14.93;;;;;;;-0.80;82.51;96732.88;489831;1150;104561;-41
2021/01/25 01:58:09;;;;;;;32.60;18.00;;;;;;;-0.93;83.08;96741.52;489799;1150;104639;-41
2021/01/25 02:08:15;;;;;;;36.20;14.40;;;;;;;-0.90;82.94;96737.70;489680;1149;104567;-43
2021/01/25 02:18:20;;;;;;;34.90;16.27;;;;;;;-1.04;82.33;96737.72;490856;1109;104523;-40
2021/01/25 02:28:25;;;;;;;38.20;18.33;;;;;;;-1.10;82.68;96745.52;489658;1150;104933;-40
2021/01/25 02:38:31;;;;;;;41.10;18.80;;;;;;;-0.94;82.68;96738.13;489613;1150;104547;-40
2021/01/25 02:48:35;;;;;;;35.97;20.47;;;;;;;-1.07;83.11;96739.93;489647;1150;104547;-40
2021/01/25 02:58:41;;;;;;;31.87;17.23;;;;;;;-1.01;83.42;96750.28;489664;1149;104703;-40
2021/01/25 03:08:46;;;;;;;37.03;15.27;;;;;;;-1.05;82.79;96758.67;489832;1149;104531;-40
2021/01/25 03:18:51;;;;;;;29.40;16.43;;;;;;;-1.13;82.54;96767.48;489820;1150;104535;-40
2021/01/25 03:28:56;;;;;;;34.67;17.33;;;;;;;-1.21;82.38;96772.05;489872;1150;104482;-40
2021/01/25 03:39:01;;;;;;;33.47;16.97;;;;;;;-1.28;82.87;96780.64;489972;1150;104812;-40
2021/01/25 03:49:06;;;;;;;35.10;18.20;;;;;;;-1.19;82.77;96788.20;489753;1150;105628;-40
2021/01/25 03:59:11;;;;;;;29.93;16.33;;;;;;;-1.19;82.94;96794.19;489669;1149;104503;-41
2021/01/25 04:09:16;;;;;;;33.73;17.33;;;;;;;-1.11;82.60;96808.77;489790;1150;105701;-40
2021/01/25 04:19:21;;;;;;;34.97;18.83;;;;;;;-1.07;82.62;96802.98;489738;1150;104636;-40
2021/01/25 04:39:45;;;;;;;29.10;15.20;;;;;;;-0.83;82.69;96793.77;489677;1150;104528;-41
2021/01/25 04:49:51;;;;;;;31.23;15.00;;;;;;;-0.82;83.08;96803.15;489696;1150;104870;-41
2021/01/25 04:59:56;;;;;;;35.13;17.17;;;;;;;-0.75;82.84;96790.16;489746;1150;104690;-40
2021/01/25 05:10:01;;;;;;;37.53;20.07;;;;;;;-0.72;83.34;96793.14;489633;1150;104585;-41
2021/01/25 05:20:09;;;;;;;45.73;22.40;;;;;;;-0.66;83.28;96794.94;489731;1149;104546;-41
2021/01/25 05:30:16;;;;;;;30.55;17.80;;;;;;;-0.66;82.57;96787.16;489648;1150;104542;-43
2021/01/25 05:40:21;;;;;;;33.90;17.67;;;;;;;-0.67;82.51;96790.75;489694;1149;104516;-41
2021/01/25 05:50:29;;;;;;;37.33;21.97;;;;;;;-0.70;82.91;96793.76;489825;1149;104541;-40
2021/01/25 06:00:35;;;;;;;37.13;19.82;;;;;;;-0.77;83.04;96798.14;489794;1149;104931;-40
2021/01/25 06:10:42;;;;;;;52.40;26.50;;;;;;;-0.76;83.22;96806.72;489743;1150;104562;-43
2021/01/25 06:20:47;;;;;;;54.50;25.83;;;;;;;-0.79;82.99;96805.34;489814;1150;105045;-41
2021/01/25 06:30:54;;;;;;;58.73;29.03;;;;;;;-0.81;83.10;96817.72;489697;1150;104530;-40
2021/01/25 06:41:09;;;;;;;52.20;27.87;;;;;;;-0.76;82.94;96822.30;489874;1150;104533;-40
2021/01/25 07:01:37;;;;;;;40.37;22.60;;;;;;;-0.64;83.89;96844.05;489536;1149;104587;-40
2021/01/25 07:11:42;;;;;;;39.27;21.70;;;;;;;-0.57;83.97;96859.61;489742;1149;104516;-40
2021/01/25 07:21:47;;;;;;;42.85;23.20;;;;;;;-0.47;84.02;96858.20;489653;1149;104527;-42
2021/01/25 07:31:54;;;;;;;52.67;25.83;;;;;;;-0.45;83.74;96860.60;489772;1149;104527;-40
2021/01/25 07:41:59;;;;;;;45.57;25.50;;;;;;;-0.43;84.17;96853.41;489757;1149;104537;-42
2021/01/25 07:52:15;;;;;;;58.03;31.43;;;;;;;-0.33;84.25;96861.55;489823;1150;104497;-41
2021/01/25 08:02:26;;;;;;;82.90;38.90;;;;;;;-0.32;84.15;96868.34;489735;1150;104521;-40
2021/01/25 08:12:31;;;;;;;49.10;23.85;;;;;;;-0.29;84.84;96856.75;489754;1149;104573;-38
2021/01/25 08:22:35;;;;;;;48.50;27.50;;;;;;;-0.28;85.18;96866.93;489611;1149;104535;-40
2021/01/25 08:32:40;;;;;;;41.07;22.07;;;;;;;-0.25;85.24;96884.70;489838;1149;104526;-43
2021/01/25 08:42:45;;;;;;;47.27;24.60;;;;;;;-0.20;85.28;96890.11;489782;1150;104450;-41
2021/01/25 08:52:57;;;;;;;45.17;23.23;;;;;;;-0.10;85.27;96893.06;489717;1150;104999;-40
2021/01/25 09:03:04;;;;;;;35.33;17.97;;;;;;;-0.05;85.40;96895.84;489689;1150;104587;-39
2021/01/25 09:13:08;;;;;;;43.57;22.50;;;;;;;0.03;85.46;96910.42;489866;1149;104585;-43
2021/01/25 09:23:12;;;;;;;41.15;21.95;;;;;;;0.10;84.77;96910.40;489729;1149;104531;-40
2021/01/25 09:33:17;;;;;;;28.70;16.47;;;;;;;0.18;85.00;96915.36;489654;1149;104524;-41
2021/01/25 09:53:40;;;;;;;48.28;24.55;;;;;;;0.32;84.58;96918.72;489728;1149;104639;-40
2021/01/25 10:03:45;;;;;;;35.07;20.97;;;;;;;0.32;84.51;96913.52;489762;1149;104925;-40
2021/01/25 10:13:51;;;;;;;36.97;18.00;;;;;;;0.27;85.07;96916.74;489687;1149;104453;-39
2021/01/25 10:23:56;;;;;;;33.60;19.20;;;;;;;0.21;85.38;96912.34;489787;1149;105604;-42
2021/01/25 10:34:00;;;;;;;38.00;18.90;;;;;;;0.06;85.54;96912.61;489636;1150;104626;-42
2021/01/25 10:44:04;;;;;;;31.90;18.47;;;;;;;0.04;85.54;96919.02;489769;1150;104577;-40
2021/01/25 10:54:09;;;;;;;30.03;17.40;;;;;;;0.06;85.67;96936.00;489676;1149;104503;-42
2021/01/25 11:04:15;;;;;;;38.57;19.43;;;;;;;0.04;85.28;96930.21;489879;1150;104559;-42
2021/01/25 11:14:19;;;;;;;41.40;17.80;;;;;;;-0.06;86.33;96942.81;489801;1149;104515;-40
2021/01/25 11:24:24;;;;;;;44.87;19.87;;;;;;;-0.11;86.06;96937.44;489533;1149;104871;-41
2021/01/25 11:34:30;;;;;;;50.80;24.03;;;;;;;-0.16;86.96;96945.84;489877;1150;104506;-42
2021/01/25 11:44:36;;;;;;;44.93;20.83;;;;;;;-0.11;87.01;96945.23;489618;1149;105846;-41
2021/01/25 11:54:41;;;;;;;36.67;17.33;;;;;;;-0.11;86.98;96963.41;489717;1149;104633;-40
2021/01/25 12:04:47;;;;;;;27.13;13.87;;;;;;;-0.06;86.61;96959.20;489791;1150;104522;-40
2021/01/25 12:14:52;;;;;;;27.23;14.60;;;;;;;0.03;86.49;96965.00;489647;1150;104505;-40
2021/01/25 12:24:57;;;;;;;24.97;12.70;;;;;;;0.04;86.05;96950.20;489711;1150;104727;-40
2021/01/25 12:35:03;;;;;;;33.63;15.70;;;;;;;0.07;86.02;96965.38;489614;1150;104515;-40
2021/01/25 12:45:10;;;;;;;36.37;17.53;;;;;;;0.17;85.55;96961.34;489698;1149;104787;-41
2021/01/25 13:05:35;;;;;;;47.17;20.50;;;;;;;0.21;84.95;96985.13;489679;1150;104486;-40
2021/01/25 13:15:42;;;;;;;34.27;18.10;;;;;;;0.27;84.82;96998.13;489681;1150;104648;-41
2021/01/25 13:25:46;;;;;;;44.80;22.23;;;;;;;0.34;84.48;96998.09;489658;1150;104527;-40
2021/01/25 13:35:51;;;;;;;82.17;35.03;;;;;;;0.38;84.52;97019.28;489808;1149;104550;-42
2021/01/25 13:45:56;;;;;;;44.10;20.57;;;;;;;0.29;84.77;97026.52;489676;1149;104615;-42
2021/01/25 13:56:01;;;;;;;49.60;24.47;;;;;;;0.26;84.60;97027.72;489785;1149;104581;-39
2021/01/25 14:06:06;;;;;;;60.77;28.10;;;;;;;0.23;84.62;97045.50;489729;1149;104559;-40
2021/01/25 14:16:12;;;;;;;45.50;21.57;;;;;;;0.22;85.18;97065.50;489782;1149;104649;-42
2021/01/25 14:26:17;;;;;;;52.20;21.70;;;;;;;0.20;84.41;97083.09;489631;1150;104537;-39
2021/01/25 14:36:23;;;;;;;42.35;18.80;;;;;;;0.19;85.16;97098.90;489832;1148;104787;-40
2021/01/25 14:46:28;;;;;;;45.00;20.15;;;;;;;0.13;84.81;97102.31;489810;1150;104614;-41
2021/01/25 14:56:33;;;;;;;41.67;19.80;;;;;;;0.13;84.40;97117.91;489788;1150;104481;-39
2021/01/25 15:06:38;;;;;;;47.93;22.37;;;;;;;0.09;84.53;97117.51;489822;1149;104800;-40
2021/01/25 15:16:43;;;;;;;37.90;18.00;;;;;;;0.10;84.43;97139.89;489761;1150;104897;-40
2021/01/25 15:26:49;;;;;;;37.17;17.23;;;;;;;0.11;84.39;97154.48;489691;1149;104892;-42
2021/01/25 15:36:54;;;;;;;36.60;18.60;;;;;;;0.07;84.95;97166.28;489521;1150;104953;-41
2021/01/25 15:46:58;;;;;;;44.45;21.20;;;;;;;0.04;85.26;97176.28;489721;1149;104530;-40
2021/01/25 15:57:04;;;;;;;45.90;22.77;;;;;;;0.03;84.85;97183.28;489807;1150;104522;-39
2021/01/25 16:07:10;;;;;;;52.87;25.17;;;;;;;0.01;85.38;97197.47;489770;1149;104551;-41
2021/01/25 16:17:15;;;;;;;45.10;22.77;;;;;;;0.01;85.68;97210.47;489880;1149;104527;-40
2021/01/25 16:27:20;;;;;;;42.53;21.50;;;;;;;0.01;85.47;97213.06;489640;1149;104693;-41
2021/01/25 16:37:25;;;;;;;47.10;21.13;;;;;;;-0.04;85.46;97224.82;489746;1149;104866;-38
2021/01/25 16:47:31;;;;;;;42.77;20.23;;;;;;;-0.04;85.91;97240.41;489766;1149;104559;-39
2021/01/25 16:57:36;;;;;;;45.07;20.97;;;;;;;-0.01;86.04;97247.02;489714;1148;104976;-39
2021/01/25 17:07:43;;;;;;;45.23;23.07;;;;;;;-0.01;85.90;97249.61;489711;1150;104512;-40
2021/01/25 17:17:49;;;;;;;49.17;25.53;;;;;;;-0.03;85.27;97249.80;489755;1150;104861;-39
2021/01/25 17:28:11;;;;;;;43.67;22.23;;;;;;;0.00;86.11;97256.44;489986;1149;104848;-42
2021/01/25 17:48:34;;;;;;;51.60;24.15;;;;;;;-0.01;86.09;97260.80;489539;1149;104527;-41
2021/01/25 17:58:40;;;;;;;41.63;20.93;;;;;;;-0.04;86.33;97271.59;489847;1148;104834;-42
2021/01/25 18:08:46;;;;;;;46.67;22.80;;;;;;;-0.14;85.84;97281.56;489787;1149;104636;-42
2021/01/25 18:18:51;;;;;;;49.03;23.30;;;;;;;-0.23;86.71;97289.73;489666;1150;104532;-39
2021/01/25 18:28:56;;;;;;;38.33;21.20;;;;;;;-0.26;86.84;97300.48;489800;1149;104489;-42
2021/01/25 18:39:02;;;;;;;47.73;23.87;;;;;;;-0.26;86.23;97295.29;489896;1148;104537;-42
2021/01/25 18:49:07;;;;;;;60.03;26.00;;;;;;;-0.33;86.68;97300.46;489765;1149;105581;-40
2021/01/25 18:59:12;;;;;;;57.07;28.00;;;;;;;-0.35;86.74;97312.84;489696;1149;104572;-42
2021/01/25 19:09:19;;;;;;;50.30;23.17;;;;;;;-0.37;86.21;97312.23;489750;1149;104452;-41
2021/01/25 19:19:25;;;;;;;46.07;19.97;;;;;;;-0.40;86.80;97326.41;489675;1148;104887;-39
2021/01/25 19:29:30;;;;;;;43.43;20.27;;;;;;;-0.45;86.70;97327.98;489738;1150;104430;-42
2021/01/25 19:39:35;;;;;;;57.67;27.20;;;;;;;-0.48;86.69;97339.53;489594;1149;104512;-42
2021/01/25 19:49:40;;;;;;;44.73;22.17;;;;;;;-0.48;86.63;97349.91;489637;1150;104899;-41
2021/01/25 19:59:45;;;;;;;53.57;20.93;;;;;;;-0.48;86.49;97362.09;489564;1148;104861;-39
2021/01/25 20:09:51;;;;;;;40.53;19.40;;;;;;;-0.48;86.25;97370.69;489758;1149;104555;-41
2021/01/25 20:19:56;;;;;;;55.37;25.00;;;;;;;-0.45;85.89;97379.92;489752;1150;104486;-41
2021/01/25 20:30:01;;;;;;;55.90;25.40;;;;;;;-0.45;85.39;97382.52;489829;1150;104527;-41
2021/01/25 20:40:21;;;;;;;53.80;23.27;;;;;;;-0.42;85.87;97395.92;489525;1149;104559;-41
2021/01/25 20:50:25;;;;;;;42.87;18.77;;;;;;;-0.43;85.66;97411.69;489831;1150;104453;-42
2021/01/25 21:00:30;;;;;;;43.23;20.37;;;;;;;-0.47;85.69;97418.27;489672;1149;104484;-40
2021/01/25 21:10:35;;;;;;;37.80;18.27;;;;;;;-0.48;85.64;97422.63;489599;1149;104924;-42
2021/01/25 21:20:40;;;;;;;42.40;17.53;;;;;;;-0.52;85.38;97430.98;489732;1149;104486;-41
2021/01/25 21:30:45;;;;;;;37.50;18.37;;;;;;;-0.56;85.24;97434.95;489685;1150;104524;-42
2021/01/25 21:40:50;;;;;;;52.83;21.30;;;;;;;-0.59;84.86;97443.92;489690;1149;105031;-43
2021/01/25 21:50:58;;;;;;;40.80;17.00;;;;;;;-0.62;85.05;97460.68;489861;1150;104925;-42
2021/01/25 22:01:03;;;;;;;36.40;18.93;;;;;;;-0.61;84.54;97474.47;489893;1150;104527;-42
2021/01/25 22:11:09;;;;;;;40.70;17.95;;;;;;;-0.61;84.58;97484.84;489743;1149;104920;-41
2021/01/25 22:21:13;;;;;;;35.37;18.27;;;;;;;-0.61;85.29;97484.84;489967;1149;104636;-39
2021/01/25 22:31:18;;;;;;;50.43;25.33;;;;;;;-0.62;85.18;97488.44;489978;1149;104522;-41
2021/01/25 22:41:22;;;;;;;40.37;18.93;;;;;;;-0.64;85.10;97495.61;489662;1149;104866;-40
2021/01/25 22:51:27;;;;;;;34.73;16.47;;;;;;;-0.66;85.21;97493.20;489769;1150;104633;-41
2021/01/25 23:01:33;;;;;;;35.03;18.43;;;;;;;-0.71;85.02;97494.73;489848;1149;104557;-42
2021/01/25 23:11:38;;;;;;;39.50;18.70;;;;;;;-0.70;84.58;97499.76;489787;1149;104873;-40
2021/01/25 23:32:01;;;;;;;;;;;;;;;-0.67;84.83;97501.98;489723;1150;104526;-40
2021/01/25 23:42:05;;;;;;;35.60;17.53;;;;;;;-0.64;84.79;97504.20;489634;1149;104547;-43
2021/01/25 23:52:11;;;;;;;39.27;18.77;;;;;;;-0.66;85.08;97498.39;489702;1149;105684;-39
